createdAt,value
2019-02-22T00:01:44.946Z,101924.23
2019-02-22T00:03:51.075Z,101926.73
2019-02-22T00:05:57.246Z,101932.69
2019-02-22T00:08:03.415Z,101937.84
2019-02-22T00:10:09.579Z,101951.84
2019-02-22T00:12:15.739Z,101953.81
2019-02-22T00:14:21.901Z,101961.05
2019-02-22T00:16:28.141Z,101967.45
2019-02-22T00:18:34.322Z,101987.56
2019-02-22T00:20:41.596Z,101999.06
2019-02-22T00:22:47.861Z,101986.80
2019-02-22T00:24:54.015Z,101994.84
2019-02-22T00:27:00.163Z,102010.02
2019-02-22T00:29:06.402Z,102021.55
2019-02-22T00:31:12.588Z,102024.38
2019-02-22T00:33:18.854Z,102031.67
2019-02-22T00:35:26.231Z,102029.00
2019-02-22T00:37:32.609Z,102042.24
2019-02-22T00:42:02.411Z,102062.00
2019-02-22T00:44:08.572Z,102062.30
2019-02-22T00:46:14.643Z,102067.87
2019-02-22T00:48:20.905Z,102057.13
2019-02-22T00:50:27.046Z,102065.62
2019-02-22T00:52:34.062Z,102065.45
2019-02-22T00:54:40.411Z,102075.68
2019-02-22T00:56:46.655Z,102080.59
2019-02-22T00:58:52.923Z,102077.54
2019-02-22T01:00:59.064Z,102089.16
2019-02-22T01:03:05.225Z,102079.87
2019-02-22T01:05:11.379Z,102093.16
2019-02-22T01:07:17.446Z,102097.34
2019-02-22T01:09:23.688Z,102089.12
2019-02-22T01:11:29.740Z,102095.23
2019-02-22T01:13:36.012Z,102092.66
2019-02-22T01:15:42.180Z,102097.72
2019-02-22T01:17:48.429Z,102095.02
2019-02-22T01:19:54.588Z,102104.42
2019-02-22T01:22:02.380Z,102115.64
2019-02-22T01:24:09.135Z,102117.23
2019-02-22T01:26:16.667Z,102124.17
2019-02-22T01:28:25.892Z,102127.16
2019-02-22T01:30:32.239Z,102128.04
2019-02-22T01:32:38.391Z,102147.65
2019-02-22T01:34:44.559Z,102151.89
2019-02-22T01:36:50.710Z,102160.93
2019-02-22T01:38:56.880Z,102162.16
2019-02-22T01:41:03.133Z,102167.72
2019-02-22T01:43:09.407Z,102178.94
2019-02-22T01:45:15.651Z,102184.95
2019-02-22T01:47:21.814Z,102195.17
2019-02-22T01:49:28.072Z,102195.87
2019-02-22T01:51:34.329Z,102204.44
2019-02-22T01:53:40.591Z,102190.64
2019-02-22T01:55:46.649Z,102214.59
2019-02-22T01:57:52.797Z,102218.12
2019-02-22T01:59:59.053Z,102210.31
2019-02-22T02:02:05.312Z,102205.01
2019-02-22T02:04:11.698Z,102218.31
2019-02-22T02:06:17.939Z,102221.60
2019-02-22T02:08:24.217Z,102227.88
2019-02-22T02:10:30.488Z,102239.86
2019-02-22T02:12:36.724Z,102243.73
2019-02-22T02:14:42.977Z,102254.87
2019-02-22T02:16:49.148Z,102262.16
2019-02-22T02:18:55.200Z,102275.06
2019-02-22T02:21:02.293Z,102265.66
2019-02-22T02:23:08.443Z,102265.62
2019-02-22T02:25:14.575Z,102274.00
2019-02-22T02:27:20.741Z,102290.02
2019-02-22T02:29:27.320Z,102290.80
2019-02-22T02:31:33.566Z,102304.39
2019-02-22T02:33:40.176Z,102302.98
2019-02-22T02:35:46.835Z,102313.42
2019-02-22T02:37:53.285Z,102317.06
2019-02-22T02:39:59.765Z,102326.30
2019-02-22T02:42:06.278Z,102323.48
2019-02-22T02:44:12.586Z,102330.33
2019-02-22T02:46:18.756Z,102336.26
2019-02-22T02:48:24.996Z,102338.84
2019-02-22T02:50:32.487Z,102337.19
2019-02-22T02:52:39.084Z,102351.37
2019-02-22T02:54:45.737Z,102351.48
2019-02-22T02:56:51.972Z,102349.63
2019-02-22T02:58:58.235Z,102357.48
2019-02-22T03:01:04.399Z,102364.30
2019-02-22T03:03:10.632Z,102383.52
2019-02-22T03:05:16.915Z,102387.75
2019-02-22T03:07:42.625Z,102383.88
2019-02-22T03:09:48.694Z,102393.19
2019-02-22T03:11:54.951Z,102398.03
2019-02-22T03:14:01.221Z,102410.31
2019-02-22T03:16:07.461Z,102409.19
2019-02-22T03:18:13.635Z,102419.33
2019-02-22T03:20:19.879Z,102428.67
2019-02-22T03:22:27.069Z,102437.09
2019-02-22T03:24:33.416Z,102441.10
2019-02-22T03:26:39.705Z,102447.77
2019-02-22T03:28:45.948Z,102454.09
2019-02-22T03:30:52.149Z,102453.87
2019-02-22T03:32:58.465Z,102455.70
2019-02-22T03:35:05.856Z,102455.70
2019-02-22T03:37:11.992Z,102462.02
2019-02-22T03:39:18.179Z,102470.98
2019-02-22T03:41:32.394Z,102472.90
2019-02-22T03:43:32.319Z,102474.45
2019-02-22T03:45:38.479Z,102476.95
2019-02-22T03:47:44.541Z,102479.17
2019-02-22T03:49:50.691Z,102488.05
2019-02-22T03:51:56.858Z,102486.58
2019-02-22T03:54:03.100Z,102497.81
2019-02-22T03:56:09.268Z,102499.63
2019-02-22T03:58:16.116Z,102505.01
2019-02-22T04:00:22.200Z,102510.64
2019-02-22T04:02:30.008Z,102519.44
2019-02-22T04:04:36.155Z,102532.52
2019-02-22T04:06:42.445Z,102535.62
2019-02-22T04:08:48.792Z,102538.45
2019-02-22T04:10:55.144Z,102547.23
2019-02-22T04:13:01.421Z,102556.19
2019-02-22T04:15:10.836Z,102552.01
2019-02-22T04:17:16.986Z,102559.19
2019-02-22T04:19:23.042Z,102570.08
2019-02-22T04:21:29.199Z,102570.97
2019-02-22T04:23:35.296Z,102576.28
2019-02-22T04:25:41.411Z,102584.34
2019-02-22T04:27:47.613Z,102590.23
2019-02-22T04:29:53.935Z,102592.86
2019-02-22T04:32:00.093Z,102613.55
2019-02-22T04:34:06.362Z,102619.30
2019-02-22T04:36:12.493Z,102618.59
2019-02-22T04:38:18.660Z,102612.66
2019-02-22T04:40:24.824Z,102617.80
2019-02-22T04:42:31.010Z,102631.06
2019-02-22T04:44:37.251Z,102631.31
2019-02-22T04:46:43.417Z,102639.67
2019-02-22T04:48:49.663Z,102640.80
2019-02-22T04:50:55.919Z,102639.30
2019-02-22T04:53:02.186Z,102652.63
2019-02-22T04:55:08.340Z,102657.45
2019-02-22T04:57:14.620Z,102665.78
2019-02-22T04:59:21.063Z,102670.94
2019-02-22T05:01:27.220Z,102681.66
2019-02-22T05:03:33.484Z,102681.66
2019-02-22T05:05:39.958Z,102687.81
2019-02-22T05:07:46.197Z,102685.97
2019-02-22T05:09:53.358Z,102691.36
2019-02-22T05:12:10.489Z,102699.63
2019-02-22T05:14:07.958Z,102703.27
2019-02-22T05:16:14.217Z,102715.00
2019-02-22T05:18:20.490Z,102717.47
2019-02-22T05:20:26.737Z,102733.70
2019-02-22T05:22:33.000Z,102750.05
2019-02-22T05:24:39.154Z,102751.27
2019-02-22T05:26:45.207Z,102753.99
2019-02-22T05:28:51.382Z,102774.56
2019-02-22T05:30:57.542Z,102772.86
2019-02-22T05:33:03.712Z,102784.09
2019-02-22T05:35:09.929Z,102787.50
2019-02-22T05:37:16.108Z,102796.52
2019-02-22T05:39:22.261Z,102796.36
2019-02-22T05:41:28.534Z,102808.63
2019-02-22T05:43:34.789Z,102824.20
2019-02-22T05:45:41.041Z,102830.21
2019-02-22T05:47:47.301Z,102836.39
2019-02-22T05:49:53.463Z,102848.66
2019-02-22T05:51:59.712Z,102852.31
2019-02-22T05:54:05.863Z,102861.60
2019-02-22T05:56:12.038Z,102868.41
2019-02-22T05:58:18.290Z,102879.31
2019-02-22T06:00:24.556Z,102885.17
2019-02-22T06:02:33.620Z,102891.03
2019-02-22T06:04:38.723Z,102889.35
2019-02-22T06:06:44.960Z,102893.83
2019-02-22T06:08:51.239Z,102902.89
2019-02-22T06:10:57.397Z,102903.22
2019-02-22T06:13:03.658Z,102904.00
2019-02-22T06:15:10.426Z,102916.17
2019-02-22T06:17:16.629Z,102924.09
2019-02-22T06:19:22.741Z,102921.53
2019-02-22T06:21:28.901Z,102935.49
2019-02-22T06:23:34.952Z,102935.88
2019-02-22T06:25:41.233Z,102944.06
2019-02-22T06:27:47.468Z,102940.53
2019-02-22T06:29:53.531Z,102948.17
2019-02-22T06:31:59.700Z,102966.23
2019-02-22T06:34:07.511Z,102978.11
2019-02-22T06:36:13.650Z,102982.04
2019-02-22T06:38:19.909Z,102977.00
2019-02-22T06:40:25.962Z,102989.25
2019-02-22T06:42:32.218Z,102987.64
2019-02-22T06:44:38.379Z,102997.92
2019-02-22T06:46:44.530Z,103008.59
2019-02-22T06:48:50.805Z,103006.81
2019-02-22T06:50:58.081Z,103014.05
2019-02-22T06:53:04.443Z,103025.80
2019-02-22T06:55:10.700Z,103036.76
2019-02-22T06:57:16.759Z,103033.37
2019-02-22T06:59:22.994Z,103039.01
2019-02-22T07:01:29.079Z,103050.19
2019-02-22T07:03:35.339Z,103052.25
2019-02-22T07:05:41.595Z,103064.72
2019-02-22T07:07:48.067Z,103065.21
2019-02-22T07:09:54.236Z,103072.82
2019-02-22T07:12:02.012Z,103084.31
2019-02-22T07:14:08.173Z,103095.88
2019-02-22T07:16:14.339Z,103098.52
2019-02-22T07:18:20.490Z,103098.20
2019-02-22T07:20:26.739Z,103108.28
2019-02-22T07:22:32.928Z,103112.56
2019-02-22T07:24:39.064Z,103114.31
2019-02-22T07:26:45.129Z,103115.20
2019-02-22T07:28:51.387Z,103135.45
2019-02-22T07:30:57.465Z,103131.20
2019-02-22T07:33:03.689Z,103146.73
2019-02-22T07:35:10.370Z,103161.27
2019-02-22T07:37:16.650Z,103158.31
2019-02-22T07:39:27.751Z,103165.50
2019-02-22T07:41:31.889Z,103173.60
2019-02-22T07:43:37.949Z,103180.03
2019-02-22T07:45:44.158Z,103189.72
2019-02-22T07:47:50.461Z,103199.50
2019-02-22T07:49:56.656Z,103205.72
2019-02-22T07:52:02.909Z,103210.47
2019-02-22T07:54:09.166Z,103214.72
2019-02-22T07:56:15.428Z,103219.28
2019-02-22T07:58:21.890Z,103236.69
2019-02-22T08:00:28.255Z,103233.98
2019-02-22T08:02:34.542Z,103234.88
2019-02-22T08:04:42.177Z,103234.59
2019-02-22T08:06:49.479Z,103241.68
2019-02-22T08:08:55.641Z,103240.78
2019-02-22T08:11:02.809Z,103248.63
2019-02-22T08:13:19.193Z,103248.95
2019-02-22T08:15:17.902Z,103251.73
2019-02-22T08:17:24.106Z,103249.92
2019-02-22T08:19:30.333Z,103261.36
2019-02-22T08:21:38.120Z,103276.02
2019-02-22T08:23:44.271Z,103280.06
2019-02-22T08:25:51.078Z,103279.48
2019-02-22T08:27:57.422Z,103280.97
2019-02-22T08:30:03.596Z,103292.86
2019-02-22T08:32:10.950Z,103293.73
2019-02-22T08:34:18.456Z,103300.43
2019-02-22T08:36:24.377Z,103311.41
2019-02-22T08:38:30.546Z,103313.85
2019-02-22T08:40:36.625Z,103320.90
2019-02-22T08:42:42.871Z,103325.23
2019-02-22T08:44:49.256Z,103332.16
2019-02-22T08:46:55.511Z,103349.58
2019-02-22T08:49:01.770Z,103342.34
2019-02-22T08:51:07.941Z,103351.78
2019-02-22T08:53:14.112Z,103344.35
2019-02-22T08:55:20.338Z,103350.06
2019-02-22T08:57:26.582Z,103351.95
2019-02-22T08:59:32.728Z,103359.16
2019-02-22T09:01:39.946Z,103353.81
2019-02-22T09:03:50.223Z,103359.85
2019-02-22T09:05:53.778Z,103375.55
2019-02-22T09:08:00.037Z,103371.41
2019-02-22T09:10:11.015Z,103375.53
2019-02-22T09:12:17.328Z,103376.54
2019-02-22T09:14:23.656Z,103373.76
2019-02-22T09:16:29.938Z,103381.99
2019-02-22T09:18:36.178Z,103377.75
2019-02-22T09:20:42.455Z,103391.72
2019-02-22T09:22:50.229Z,103391.72
2019-02-22T09:24:57.997Z,103398.45
2019-02-22T09:27:04.172Z,103396.05
2019-02-22T09:29:11.728Z,103409.30
2019-02-22T09:31:17.571Z,103409.19
2019-02-22T09:33:23.681Z,103419.89
2019-02-22T09:35:29.905Z,103416.52
2019-02-22T09:37:35.976Z,103425.52
2019-02-22T09:39:42.250Z,103418.63
2019-02-22T09:41:48.411Z,103425.04
2019-02-22T09:43:55.852Z,103427.98
2019-02-22T09:46:03.604Z,103429.93
2019-02-22T09:48:09.737Z,103437.35
2019-02-22T09:50:17.737Z,103447.42
2019-02-22T09:52:23.816Z,103448.95
2019-02-22T09:54:29.783Z,103446.51
2019-02-22T09:56:35.908Z,103450.88
2019-02-22T09:58:42.065Z,103459.39
2019-02-22T10:00:48.216Z,103455.62
2019-02-22T10:02:54.395Z,103458.28
2019-02-22T10:05:00.646Z,103468.77
2019-02-22T10:07:08.105Z,103464.91
2019-02-22T10:09:14.271Z,103469.56
2019-02-22T10:11:20.234Z,103477.39
2019-02-22T10:13:26.270Z,103474.45
2019-02-22T10:15:32.337Z,103475.44
2019-02-22T10:17:39.042Z,103484.25
2019-02-22T10:19:45.692Z,103482.16
2019-02-22T10:21:51.916Z,103489.73
2019-02-22T10:23:58.194Z,103502.38
2019-02-22T10:26:04.215Z,103498.03
2019-02-22T10:28:17.597Z,103495.89
2019-02-22T10:30:21.354Z,103498.03
2019-02-22T10:32:28.023Z,103506.08
2019-02-22T10:34:35.121Z,103502.53
2019-02-22T10:36:45.309Z,103516.77
2019-02-22T10:38:50.398Z,103517.23
2019-02-22T10:40:56.744Z,103516.94
2019-02-22T10:43:02.936Z,103522.31
2019-02-22T10:45:11.401Z,103518.58
2019-02-22T10:47:17.544Z,103520.78
2019-02-22T10:49:24.842Z,103523.73
2019-02-22T10:51:31.056Z,103524.42
2019-02-22T10:53:37.125Z,103522.28
2019-02-22T10:55:44.495Z,103525.05
2019-02-22T10:57:50.468Z,103531.28
2019-02-22T10:59:56.610Z,103537.05
2019-02-22T11:02:02.656Z,103536.91
2019-02-22T11:04:08.928Z,103542.64
2019-02-22T11:06:14.845Z,103551.59
2019-02-22T11:08:21.439Z,103545.75
2019-02-22T11:10:27.840Z,103556.25
2019-02-22T11:12:34.055Z,103553.95
2019-02-22T11:14:40.097Z,103552.46
2019-02-22T11:16:46.548Z,103560.41
2019-02-22T11:18:52.503Z,103570.31
2019-02-22T11:20:58.553Z,103562.58
2019-02-22T11:23:04.637Z,103564.95
2019-02-22T11:25:16.378Z,103567.11
2019-02-22T11:27:22.294Z,103568.69
2019-02-22T11:29:28.262Z,103567.80
2019-02-22T11:31:34.311Z,103570.38
2019-02-22T11:33:40.294Z,103568.58
2019-02-22T11:35:46.298Z,103579.80
2019-02-22T11:37:52.463Z,103576.03
2019-02-22T11:39:58.530Z,103578.87
2019-02-22T11:42:04.788Z,103582.91
2019-02-22T11:44:10.930Z,103590.05
2019-02-22T11:46:16.958Z,103580.99
2019-02-22T11:48:22.897Z,103569.52
2019-02-22T11:50:28.824Z,103586.05
2019-02-22T11:52:34.927Z,103585.41
2019-02-22T11:54:41.036Z,103580.89
2019-02-22T11:56:47.060Z,103579.28
2019-02-22T11:58:53.226Z,103578.17
2019-02-22T12:00:59.253Z,103586.05
2019-02-22T12:03:21.229Z,103579.70
2019-02-22T12:05:13.455Z,103579.84
2019-02-22T12:07:19.611Z,103584.36
2019-02-22T12:09:26.771Z,103590.31
2019-02-22T12:11:32.835Z,103589.78
2019-02-22T12:13:38.900Z,103582.79
2019-02-22T12:15:47.927Z,103590.28
2019-02-22T12:17:54.097Z,103600.38
2019-02-22T12:20:00.364Z,103592.17
2019-02-22T12:22:06.715Z,103592.00
2019-02-22T12:24:12.766Z,103596.62
2019-02-22T12:26:18.799Z,103594.33
2019-02-22T12:28:24.696Z,103596.41
2019-02-22T12:30:30.727Z,103592.86
2019-02-22T12:32:39.482Z,103597.20
2019-02-22T12:34:44.881Z,103596.69
2019-02-22T12:36:51.055Z,103595.19
2019-02-22T12:38:57.176Z,103599.45
2019-02-22T12:41:03.240Z,103600.13
2019-02-22T12:43:09.378Z,103604.80
2019-02-22T12:45:15.768Z,103612.20
2019-02-22T12:47:21.682Z,103610.05
2019-02-22T12:49:27.858Z,103612.70
2019-02-22T12:51:33.862Z,103606.22
2019-02-22T12:53:51.659Z,103620.16
2019-02-22T12:55:57.715Z,103620.85
2019-02-22T12:58:03.756Z,103615.26
2019-02-22T13:00:17.637Z,103624.80
2019-02-22T13:02:23.710Z,103608.48
2019-02-22T13:04:29.925Z,103624.69
2019-02-22T13:06:35.933Z,103631.85
2019-02-22T13:08:41.974Z,103627.44
2019-02-22T13:10:48.309Z,103627.16
2019-02-22T13:12:54.545Z,103632.89
2019-02-22T13:15:00.725Z,103628.12
2019-02-22T13:17:06.976Z,103636.33
2019-02-22T13:19:13.111Z,103638.12
2019-02-22T13:21:19.368Z,103639.16
2019-02-22T13:23:25.579Z,103642.03
2019-02-22T13:25:31.815Z,103638.34
2019-02-22T13:27:37.959Z,103644.44
2019-02-22T13:29:43.955Z,103656.19
2019-02-22T13:31:49.963Z,103657.77
2019-02-22T13:33:56.012Z,103650.77
2019-02-22T13:36:02.190Z,103653.48
2019-02-22T13:38:08.353Z,103664.52
2019-02-22T13:40:17.382Z,103668.48
2019-02-22T13:42:23.628Z,103673.84
2019-02-22T13:44:29.809Z,103672.75
2019-02-22T13:46:36.062Z,103682.86
2019-02-22T13:48:42.322Z,103685.55
2019-02-22T13:50:48.576Z,103683.15
2019-02-22T13:52:54.835Z,103677.17
2019-02-22T13:55:00.995Z,103687.52
2019-02-22T13:57:08.895Z,103673.84
2019-02-22T13:59:15.145Z,103680.59
2019-02-22T14:01:21.295Z,103677.72
2019-02-22T14:03:28.800Z,103693.77
2019-02-22T14:05:34.971Z,103692.91
2019-02-22T14:07:42.551Z,103694.98
2019-02-22T14:09:49.644Z,103696.69
2019-02-22T14:11:55.799Z,103704.05
2019-02-22T14:14:02.052Z,103704.77
2019-02-22T14:16:08.427Z,103698.59
2019-02-22T14:18:14.558Z,103705.54
2019-02-22T14:20:20.728Z,103709.48
2019-02-22T14:22:27.006Z,103705.21
2019-02-22T14:24:34.840Z,103723.75
2019-02-22T14:26:41.140Z,103721.70
2019-02-22T14:28:47.312Z,103718.50
2019-02-22T14:30:53.593Z,103722.38
2019-02-22T14:32:59.842Z,103725.97
2019-02-22T14:35:07.622Z,103725.19
2019-02-22T14:37:13.926Z,103730.03
2019-02-22T14:39:20.441Z,103728.36
2019-02-22T14:41:27.998Z,103732.50
2019-02-22T14:43:34.314Z,103727.97
2019-02-22T14:45:48.952Z,103734.51
2019-02-22T14:47:48.970Z,103738.19
2019-02-22T14:49:55.248Z,103731.34
2019-02-22T14:52:01.601Z,103736.30
2019-02-22T14:54:08.062Z,103735.30
2019-02-22T14:56:14.778Z,103736.89
2019-02-22T14:58:21.018Z,103734.13
2019-02-22T15:00:30.396Z,103733.23
2019-02-22T15:02:36.996Z,103741.08
2019-02-22T15:04:45.089Z,103734.23
2019-02-22T15:06:51.345Z,103745.72
2019-02-22T15:08:58.963Z,103743.03
2019-02-22T15:11:05.647Z,103746.43
2019-02-22T15:13:12.492Z,103738.20
2019-02-22T15:15:22.733Z,103751.86
2019-02-22T15:17:30.751Z,103755.06
2019-02-22T15:19:37.000Z,103756.62
2019-02-22T15:21:44.521Z,103760.30
2019-02-22T15:23:50.852Z,103756.23
2019-02-22T15:26:04.087Z,103763.07
2019-02-22T15:28:12.139Z,103764.75
2019-02-22T15:30:18.858Z,103767.75
2019-02-22T15:32:25.224Z,103769.83
2019-02-22T15:34:31.482Z,103774.86
2019-02-22T15:36:37.646Z,103769.03
2019-02-22T15:38:45.070Z,103772.66
2019-02-22T15:40:52.541Z,103772.20
2019-02-22T15:43:00.222Z,103778.83
2019-02-22T15:45:10.767Z,103779.33
2019-02-22T15:47:17.039Z,103787.52
2019-02-22T15:49:23.490Z,103783.36
2019-02-22T15:51:31.202Z,103782.66
2019-02-22T15:53:38.963Z,103788.11
2019-02-22T15:55:45.356Z,103794.82
2019-02-22T15:57:53.141Z,103796.11
2019-02-22T15:59:59.712Z,103797.19
2019-02-22T16:02:08.727Z,103811.93
2019-02-22T16:04:21.953Z,103813.52
2019-02-22T16:06:34.684Z,103812.30
2019-02-22T16:08:41.178Z,103811.11
2019-02-22T16:10:47.597Z,103816.92
2019-02-22T16:12:54.064Z,103815.22
2019-02-22T16:15:00.337Z,103816.51
2019-02-22T16:17:08.568Z,103826.95
2019-02-22T16:19:14.779Z,103825.92
2019-02-22T16:21:22.309Z,103835.84
2019-02-22T16:23:29.176Z,103841.67
2019-02-22T16:25:36.006Z,103843.25
2019-02-22T16:27:42.482Z,103841.34
2019-02-22T16:29:50.191Z,103843.30
2019-02-22T16:31:58.182Z,103843.87
2019-02-22T16:34:04.749Z,103839.97
2019-02-22T16:36:11.470Z,103842.07
2019-02-22T16:38:17.707Z,103841.86
2019-02-22T16:40:23.940Z,103841.56
2019-02-22T16:42:30.215Z,103846.31
2019-02-22T16:44:38.081Z,103842.72
2019-02-22T16:46:44.899Z,103845.77
2019-02-22T16:48:51.312Z,103848.89
2019-02-22T16:50:57.491Z,103846.44
2019-02-22T16:53:03.575Z,103851.77
2019-02-22T16:55:19.349Z,103853.82
2019-02-22T16:57:25.879Z,103846.40
2019-02-22T16:59:32.036Z,103846.44
2019-02-22T17:01:39.990Z,103849.70
2019-02-22T17:03:50.402Z,103854.11
2019-02-22T17:05:58.118Z,103857.36
2019-02-22T17:08:04.591Z,103851.61
2019-02-22T17:10:12.744Z,103856.55
2019-02-22T17:12:20.185Z,103865.03
2019-02-22T17:14:26.597Z,103870.63
2019-02-22T17:16:33.011Z,103868.73
2019-02-22T17:18:41.214Z,103866.42
2019-02-22T17:20:47.670Z,103876.16
2019-02-22T17:22:55.460Z,103875.22
2019-02-22T17:25:03.192Z,103878.34
2019-02-22T17:27:09.860Z,103884.25
2019-02-22T17:29:17.832Z,103884.16
2019-02-22T17:31:24.183Z,103882.66
2019-02-22T17:33:33.702Z,103893.64
2019-02-22T17:35:39.982Z,103893.55
2019-02-22T17:37:46.863Z,103901.42
2019-02-22T17:39:53.232Z,103901.70
2019-02-22T17:42:00.501Z,103898.50
2019-02-22T17:44:06.867Z,103890.72
2019-02-22T17:46:13.350Z,103893.45
2019-02-22T17:48:19.889Z,103890.56
2019-02-22T17:50:26.351Z,103891.56
2019-02-22T17:52:33.144Z,103903.19
2019-02-22T17:54:39.579Z,103905.53
2019-02-22T17:56:47.501Z,103913.50
2019-02-22T17:58:54.389Z,103921.52
2019-02-22T18:01:02.790Z,103920.14
2019-02-22T18:03:09.331Z,103921.80
2019-02-22T18:05:15.864Z,103926.84
2019-02-22T18:07:22.197Z,103930.44
2019-02-22T18:09:28.646Z,103932.91
2019-02-22T18:11:35.327Z,103939.84
2019-02-22T18:13:42.203Z,103939.20
2019-02-22T18:15:48.661Z,103951.20
2019-02-22T18:17:57.305Z,103947.63
2019-02-22T18:20:08.660Z,103958.13
2019-02-22T18:22:25.211Z,103958.59
2019-02-22T18:24:24.613Z,103962.30
2019-02-22T18:26:31.214Z,103965.02
2019-02-22T18:28:37.901Z,103963.50
2019-02-22T18:30:45.983Z,103972.52
2019-02-22T18:32:52.454Z,103972.28
2019-02-22T18:34:58.677Z,103974.45
2019-02-22T18:37:05.233Z,103979.91
2019-02-22T18:39:11.948Z,103980.59
2019-02-22T18:41:18.678Z,103976.36
2019-02-22T18:43:26.351Z,103974.59
2019-02-22T18:45:34.131Z,103981.02
2019-02-22T18:47:40.574Z,103978.45
2019-02-22T18:49:47.263Z,103979.50
2019-02-22T18:51:56.374Z,103982.07
2019-02-22T18:54:02.900Z,103981.17
2019-02-22T18:56:09.520Z,103977.19
2019-02-22T18:58:16.131Z,103979.91
2019-02-22T19:00:25.557Z,103980.80
2019-02-22T19:02:32.088Z,103980.56
2019-02-22T19:04:38.514Z,103980.72
2019-02-22T19:06:49.621Z,103979.81
2019-02-22T19:08:59.530Z,103981.90
2019-02-22T19:11:07.848Z,103976.91
2019-02-22T19:13:15.544Z,103981.67
2019-02-22T19:15:24.297Z,103990.56
2019-02-22T19:17:31.295Z,103987.91
2019-02-22T19:19:37.780Z,103996.23
2019-02-22T19:21:44.618Z,103998.70
2019-02-22T19:23:51.961Z,104010.77
2019-02-22T19:25:58.699Z,104010.81
2019-02-22T19:28:06.902Z,104013.11
2019-02-22T19:30:23.472Z,104007.59
2019-02-22T19:32:30.301Z,104009.02
2019-02-22T19:34:36.813Z,104006.97
2019-02-22T19:36:44.912Z,104008.67
2019-02-22T19:38:51.480Z,104011.48
2019-02-22T19:40:59.635Z,104017.80
2019-02-22T19:43:07.294Z,104026.92
2019-02-22T19:45:13.952Z,104036.03
2019-02-22T19:47:22.112Z,104030.14
2019-02-22T19:49:31.832Z,104035.27
2019-02-22T19:51:38.513Z,104033.44
2019-02-22T19:53:45.415Z,104037.04
2019-02-22T19:55:52.457Z,104035.89
2019-02-22T19:58:00.693Z,104041.06
2019-02-22T20:00:12.194Z,104045.19
2019-02-22T20:02:18.832Z,104048.02
2019-02-22T20:04:25.759Z,104043.30
2019-02-22T20:06:32.476Z,104048.55
2019-02-22T20:08:40.172Z,104047.03
2019-02-22T20:10:48.095Z,104049.97
2019-02-22T20:12:55.673Z,104053.94
2019-02-22T20:15:02.599Z,104056.64
2019-02-22T20:17:10.841Z,104061.89
2019-02-22T20:19:17.317Z,104067.92
2019-02-22T20:21:25.439Z,104067.92
2019-02-22T20:23:32.195Z,104066.53
2019-02-22T20:25:42.054Z,104064.63
2019-02-22T20:27:50.355Z,104071.16
2019-02-22T20:29:57.040Z,104073.45
2019-02-22T20:32:05.313Z,104067.42
2019-02-22T20:34:12.103Z,104073.58
2019-02-22T20:36:27.979Z,104079.22
2019-02-22T20:38:27.992Z,104073.59
2019-02-22T20:40:34.712Z,104076.14
2019-02-22T20:42:41.347Z,104080.37
2019-02-22T20:44:50.759Z,104082.80
2019-02-22T20:46:57.415Z,104091.66
2019-02-22T20:49:06.638Z,104091.52
2019-02-22T20:51:13.072Z,104095.73
2019-02-22T20:53:19.833Z,104098.05
2019-02-22T20:55:26.570Z,104099.70
2019-02-22T20:57:34.814Z,104107.66
2019-02-22T20:59:41.692Z,104099.72
2019-02-22T21:01:49.051Z,104101.00
2019-02-22T21:03:55.727Z,104100.85
2019-02-22T21:06:04.237Z,104099.98
2019-02-22T21:08:12.045Z,104097.01
2019-02-22T21:10:22.435Z,104095.12
2019-02-22T21:12:30.370Z,104091.39
2019-02-22T21:14:37.251Z,104093.05
2019-02-22T21:16:43.578Z,104098.30
2019-02-22T21:18:51.565Z,104107.91
2019-02-22T21:20:59.672Z,104102.00
2019-02-22T21:23:06.090Z,104101.75
2019-02-22T21:25:13.295Z,104103.67
2019-02-22T21:27:22.233Z,104102.13
2019-02-22T21:29:30.236Z,104097.37
2019-02-22T21:31:38.176Z,104096.36
2019-02-22T21:33:46.359Z,104104.71
2019-02-22T21:35:53.015Z,104114.32
2019-02-22T21:37:59.456Z,104113.53
2019-02-22T21:40:08.451Z,104120.44
2019-02-22T21:42:20.095Z,104122.62
2019-02-22T21:44:24.085Z,104119.92
2019-02-22T21:46:32.284Z,104124.25
2019-02-22T21:48:38.763Z,104116.80
2019-02-22T21:50:45.343Z,104127.30
2019-02-22T21:52:52.204Z,104128.93
2019-02-22T21:54:59.893Z,104133.52
2019-02-22T21:57:07.762Z,104130.58
2019-02-22T21:59:15.605Z,104125.68
2019-02-22T22:01:26.277Z,104133.32
2019-02-22T22:03:32.603Z,104132.56
2019-02-22T22:05:40.103Z,104132.30
2019-02-22T22:07:46.481Z,104136.40
2019-02-22T22:09:54.268Z,104133.08
2019-02-22T22:12:00.524Z,104131.27
2019-02-22T22:14:07.509Z,104139.05
2019-02-22T22:16:13.749Z,104138.78
2019-02-22T22:18:22.000Z,104142.34
2019-02-22T22:20:28.217Z,104143.84
2019-02-22T22:22:34.376Z,104147.30
2019-02-22T22:24:40.537Z,104147.77
2019-02-22T22:26:46.806Z,104149.41
2019-02-22T22:28:53.060Z,104146.97
2019-02-22T22:30:59.219Z,104147.98
2019-02-22T22:33:05.473Z,104156.83
2019-02-22T22:35:17.584Z,104154.80
2019-02-22T22:37:23.837Z,104161.20
2019-02-22T22:39:30.086Z,104155.81
2019-02-22T22:41:36.272Z,104158.96
2019-02-22T22:43:42.390Z,104158.31
2019-02-22T22:45:48.455Z,104160.22
2019-02-22T22:47:54.615Z,104161.34
2019-02-22T22:50:00.804Z,104166.84
2019-02-22T22:52:07.028Z,104165.44
2019-02-22T22:54:13.295Z,104160.17
2019-02-22T22:56:19.464Z,104160.58
2019-02-22T22:58:25.825Z,104160.58
2019-02-22T23:00:53.573Z,104166.34
2019-02-22T23:03:00.044Z,104177.32
2019-02-22T23:05:08.768Z,104181.03
2019-02-22T23:07:15.025Z,104185.74
2019-02-22T23:09:22.306Z,104186.55
2019-02-22T23:11:28.575Z,104176.75
2019-02-22T23:13:34.822Z,104178.42
2019-02-22T23:15:40.993Z,104167.59
2019-02-22T23:17:48.361Z,104174.27
2019-02-22T23:19:54.638Z,104176.19
2019-02-22T23:22:00.895Z,104185.31
2019-02-22T23:24:07.143Z,104185.77
2019-02-22T23:26:13.295Z,104182.31
2019-02-22T23:28:19.465Z,104194.53
2019-02-22T23:30:25.621Z,104190.42
2019-02-22T23:32:31.882Z,104188.14
2019-02-22T23:34:38.347Z,104194.16
2019-02-22T23:36:44.506Z,104199.28
2019-02-22T23:38:50.876Z,104206.85
2019-02-22T23:40:57.023Z,104199.55
2019-02-22T23:43:03.175Z,104199.55
2019-02-22T23:45:09.888Z,104207.48
2019-02-22T23:47:16.050Z,104204.40
2019-02-22T23:49:22.217Z,104196.83
2019-02-22T23:51:28.437Z,104184.13
2019-02-22T23:53:34.919Z,104194.25
2019-02-22T23:55:42.246Z,104201.66
2019-02-22T23:57:48.334Z,104203.16
2019-02-22T23:59:54.608Z,104204.44
